sensor_id;sensor_type;location;lat;lon;timestamp;temperature;humidity
1049;DHT22;513;51.444;7.196;2022-12-20T00:00:14;10.80;45.00
1049;DHT22;513;51.444;7.196;2022-12-20T00:02:41;10.80;42.50
1049;DHT22;513;51.444;7.196;2022-12-20T00:05:07;10.80;35.90
1049;DHT22;513;51.444;7.196;2022-12-20T00:07:34;10.90;24.60
1049;DHT22;513;51.444;7.196;2022-12-20T00:10:01;11.00;17.30
1049;DHT22;513;51.444;7.196;2022-12-20T00:12:27;11.00;13.70
1049;DHT22;513;51.444;7.196;2022-12-20T00:14:54;11.00;13.30
1049;DHT22;513;51.444;7.196;2022-12-20T00:17:22;11.00;14.20
1049;DHT22;513;51.444;7.196;2022-12-20T00:19:49;11.00;16.40
1049;DHT22;513;51.444;7.196;2022-12-20T00:22:15;11.10;16.30
1049;DHT22;513;51.444;7.196;2022-12-20T00:24:42;11.20;11.80
1049;DHT22;513;51.444;7.196;2022-12-20T00:27:09;11.20;10.40
1049;DHT22;513;51.444;7.196;2022-12-20T00:29:37;11.20;12.80
1049;DHT22;513;51.444;7.196;2022-12-20T00:32:03;11.20;10.20
1049;DHT22;513;51.444;7.196;2022-12-20T00:34:31;11.20;11.70
1049;DHT22;513;51.444;7.196;2022-12-20T00:36:58;11.40;1.00
1049;DHT22;513;51.444;7.196;2022-12-20T00:39:25;11.40;1.00
1049;DHT22;513;51.444;7.196;2022-12-20T00:41:51;11.40;1.00
1049;DHT22;513;51.444;7.196;2022-12-20T00:44:18;11.40;1.00
1049;DHT22;513;51.444;7.196;2022-12-20T00:46:44;11.40;1.00
1049;DHT22;513;51.444;7.196;2022-12-20T00:49:11;11.30;1.00
1049;DHT22;513;51.444;7.196;2022-12-20T00:51:41;11.20;1.00
1049;DHT22;513;51.444;7.196;2022-12-20T00:54:08;11.20;1.00
1049;DHT22;513;51.444;7.196;2022-12-20T00:56:35;11.10;6.40
1049;DHT22;513;51.444;7.196;2022-12-20T00:59:01;11.10;1.90
1049;DHT22;513;51.444;7.196;2022-12-20T01:01:30;11.10;1.50
1049;DHT22;513;51.444;7.196;2022-12-20T01:03:57;11.10;1.00
1049;DHT22;513;51.444;7.196;2022-12-20T01:06:24;11.20;1.60
1049;DHT22;513;51.444;7.196;2022-12-20T01:08:53;11.10;10.40
1049;DHT22;513;51.444;7.196;2022-12-20T01:11:21;11.10;15.10
1049;DHT22;513;51.444;7.196;2022-12-20T01:13:50;11.10;16.60
1049;DHT22;513;51.444;7.196;2022-12-20T01:16:19;11.10;10.20
1049;DHT22;513;51.444;7.196;2022-12-20T01:18:47;11.20;7.20
1049;DHT22;513;51.444;7.196;2022-12-20T01:21:16;11.10;8.50
1049;DHT22;513;51.444;7.196;2022-12-20T01:23:43;11.20;5.70
1049;DHT22;513;51.444;7.196;2022-12-20T01:26:13;11.20;1.70
1049;DHT22;513;51.444;7.196;2022-12-20T01:28:41;11.20;5.30
1049;DHT22;513;51.444;7.196;2022-12-20T01:31:09;11.20;8.20
1049;DHT22;513;51.444;7.196;2022-12-20T01:33:36;11.10;13.20
1049;DHT22;513;51.444;7.196;2022-12-20T01:36:05;11.20;13.50
1049;DHT22;513;51.444;7.196;2022-12-20T01:38:32;11.20;15.60
1049;DHT22;513;51.444;7.196;2022-12-20T01:41:00;11.10;17.10
1049;DHT22;513;51.444;7.196;2022-12-20T01:43:45;11.10;17.30
1049;DHT22;513;51.444;7.196;2022-12-20T01:46:13;11.20;20.90
1049;DHT22;513;51.444;7.196;2022-12-20T01:48:40;11.10;24.10
1049;DHT22;513;51.444;7.196;2022-12-20T01:51:08;11.10;28.20
1049;DHT22;513;51.444;7.196;2022-12-20T01:53:34;11.10;29.80
1049;DHT22;513;51.444;7.196;2022-12-20T01:56:04;11.10;29.10
1049;DHT22;513;51.444;7.196;2022-12-20T01:58:33;11.20;29.00
1049;DHT22;513;51.444;7.196;2022-12-20T02:01:02;11.20;32.10
1049;DHT22;513;51.444;7.196;2022-12-20T02:03:30;11.10;34.40
1049;DHT22;513;51.444;7.196;2022-12-20T02:06:12;11.10;40.70
1049;DHT22;513;51.444;7.196;2022-12-20T02:08:39;11.10;43.60
1049;DHT22;513;51.444;7.196;2022-12-20T02:11:15;11.10;51.80
1049;DHT22;513;51.444;7.196;2022-12-20T02:13:53;11.10;57.50
1049;DHT22;513;51.444;7.196;2022-12-20T02:16:25;11.10;61.00
1049;DHT22;513;51.444;7.196;2022-12-20T02:18:57;11.10;69.20
1049;DHT22;513;51.444;7.196;2022-12-20T02:21:29;11.00;72.20
1049;DHT22;513;51.444;7.196;2022-12-20T02:24:43;11.00;78.60
1049;DHT22;513;51.444;7.196;2022-12-20T02:27:43;11.00;90.10
1049;DHT22;513;51.444;7.196;2022-12-20T02:30:15;11.00;91.40
1049;DHT22;513;51.444;7.196;2022-12-20T02:32:54;10.90;93.10
1049;DHT22;513;51.444;7.196;2022-12-20T02:35:25;10.90;95.60
1049;DHT22;513;51.444;7.196;2022-12-20T02:37:53;10.90;97.90
1049;DHT22;513;51.444;7.196;2022-12-20T02:40:24;10.80;99.90
1049;DHT22;513;51.444;7.196;2022-12-20T02:42:55;10.80;99.90
1049;DHT22;513;51.444;7.196;2022-12-20T02:45:26;10.80;99.90
1049;DHT22;513;51.444;7.196;2022-12-20T02:47:55;10.80;99.20
1049;DHT22;513;51.444;7.196;2022-12-20T02:50:26;10.80;98.20
1049;DHT22;513;51.444;7.196;2022-12-20T02:52:54;10.80;97.60
1049;DHT22;513;51.444;7.196;2022-12-20T02:55:29;10.80;97.70
1049;DHT22;513;51.444;7.196;2022-12-20T02:58:00;10.80;95.70
1049;DHT22;513;51.444;7.196;2022-12-20T03:00:33;10.80;91.30
1049;DHT22;513;51.444;7.196;2022-12-20T03:03:03;10.80;90.60
1049;DHT22;513;51.444;7.196;2022-12-20T03:05:50;10.80;88.00
1049;DHT22;513;51.444;7.196;2022-12-20T03:08:18;10.80;91.50
1049;DHT22;513;51.444;7.196;2022-12-20T03:10:45;10.80;93.70
1049;DHT22;513;51.444;7.196;2022-12-20T03:13:12;10.80;92.60
1049;DHT22;513;51.444;7.196;2022-12-20T03:15:40;10.80;91.30
1049;DHT22;513;51.444;7.196;2022-12-20T03:18:07;10.80;94.20
1049;DHT22;513;51.444;7.196;2022-12-20T03:20:33;10.70;97.30
1049;DHT22;513;51.444;7.196;2022-12-20T03:23:00;10.70;99.90
1049;DHT22;513;51.444;7.196;2022-12-20T03:25:27;10.70;99.90
1049;DHT22;513;51.444;7.196;2022-12-20T03:27:54;10.60;99.90
1049;DHT22;513;51.444;7.196;2022-12-20T03:30:20;10.40;99.90
1049;DHT22;513;51.444;7.196;2022-12-20T03:32:48;10.30;99.90
1049;DHT22;513;51.444;7.196;2022-12-20T03:35:15;10.30;99.90
1049;DHT22;513;51.444;7.196;2022-12-20T03:37:42;10.10;99.90
1049;DHT22;513;51.444;7.196;2022-12-20T03:40:10;10.10;99.90
1049;DHT22;513;51.444;7.196;2022-12-20T03:42:37;10.10;99.90
1049;DHT22;513;51.444;7.196;2022-12-20T03:45:04;10.10;99.90
1049;DHT22;513;51.444;7.196;2022-12-20T03:47:31;10.10;99.90
1049;DHT22;513;51.444;7.196;2022-12-20T03:49:59;10.10;99.90
1049;DHT22;513;51.444;7.196;2022-12-20T03:52:26;10.00;99.90
1049;DHT22;513;51.444;7.196;2022-12-20T03:54:52;10.00;99.90
1049;DHT22;513;51.444;7.196;2022-12-20T03:57:19;9.90;99.90
1049;DHT22;513;51.444;7.196;2022-12-20T03:59:46;9.90;99.90
1049;DHT22;513;51.444;7.196;2022-12-20T04:02:12;9.80;99.90
1049;DHT22;513;51.444;7.196;2022-12-20T04:04:39;9.80;99.90
1049;DHT22;513;51.444;7.196;2022-12-20T04:07:07;9.80;99.90
1049;DHT22;513;51.444;7.196;2022-12-20T04:09:34;9.80;99.90
1049;DHT22;513;51.444;7.196;2022-12-20T04:12:01;9.80;99.90
1049;DHT22;513;51.444;7.196;2022-12-20T04:14:27;9.80;99.90
1049;DHT22;513;51.444;7.196;2022-12-20T04:16:54;9.80;99.90
1049;DHT22;513;51.444;7.196;2022-12-20T04:19:21;9.80;99.90
1049;DHT22;513;51.444;7.196;2022-12-20T04:21:47;10.00;99.90
1049;DHT22;513;51.444;7.196;2022-12-20T04:24:16;9.90;99.90
1049;DHT22;513;51.444;7.196;2022-12-20T04:26:42;9.90;99.90
1049;DHT22;513;51.444;7.196;2022-12-20T04:29:09;9.90;99.90
1049;DHT22;513;51.444;7.196;2022-12-20T04:31:36;9.90;99.90
1049;DHT22;513;51.444;7.196;2022-12-20T04:34:02;9.80;99.90
1049;DHT22;513;51.444;7.196;2022-12-20T04:36:29;9.80;99.90
1049;DHT22;513;51.444;7.196;2022-12-20T04:38:56;9.70;99.90
1049;DHT22;513;51.444;7.196;2022-12-20T04:41:23;9.70;99.90
1049;DHT22;513;51.444;7.196;2022-12-20T04:43:53;9.60;99.90
1049;DHT22;513;51.444;7.196;2022-12-20T04:46:21;9.70;99.90
1049;DHT22;513;51.444;7.196;2022-12-20T04:48:48;9.70;99.90
1049;DHT22;513;51.444;7.196;2022-12-20T04:51:15;9.70;99.90
1049;DHT22;513;51.444;7.196;2022-12-20T04:53:42;9.60;99.90
1049;DHT22;513;51.444;7.196;2022-12-20T04:56:15;9.60;99.90
1049;DHT22;513;51.444;7.196;2022-12-20T04:58:44;9.60;99.90
1049;DHT22;513;51.444;7.196;2022-12-20T05:01:11;9.60;99.90
1049;DHT22;513;51.444;7.196;2022-12-20T05:03:38;9.60;99.90
1049;DHT22;513;51.444;7.196;2022-12-20T05:06:05;9.60;99.90
1049;DHT22;513;51.444;7.196;2022-12-20T05:08:32;9.60;99.90
1049;DHT22;513;51.444;7.196;2022-12-20T05:10:59;9.50;99.90
1049;DHT22;513;51.444;7.196;2022-12-20T05:13:26;9.50;99.90
1049;DHT22;513;51.444;7.196;2022-12-20T05:15:55;9.50;99.90
1049;DHT22;513;51.444;7.196;2022-12-20T05:18:22;9.50;99.90
1049;DHT22;513;51.444;7.196;2022-12-20T05:20:49;9.60;99.90
1049;DHT22;513;51.444;7.196;2022-12-20T05:23:37;9.50;99.90
1049;DHT22;513;51.444;7.196;2022-12-20T05:26:22;9.50;99.90
1049;DHT22;513;51.444;7.196;2022-12-20T05:28:49;9.50;99.90
1049;DHT22;513;51.444;7.196;2022-12-20T05:31:17;9.50;99.90
1049;DHT22;513;51.444;7.196;2022-12-20T05:33:44;9.50;99.90
1049;DHT22;513;51.444;7.196;2022-12-20T05:36:11;9.50;99.90
1049;DHT22;513;51.444;7.196;2022-12-20T05:38:38;9.50;99.90
1049;DHT22;513;51.444;7.196;2022-12-20T05:41:05;9.50;99.90
1049;DHT22;513;51.444;7.196;2022-12-20T05:43:32;9.50;99.90
1049;DHT22;513;51.444;7.196;2022-12-20T05:45:58;9.50;99.90
1049;DHT22;513;51.444;7.196;2022-12-20T05:48:27;9.50;99.90
1049;DHT22;513;51.444;7.196;2022-12-20T05:50:53;9.50;99.90
1049;DHT22;513;51.444;7.196;2022-12-20T05:53:20;9.50;99.90
1049;DHT22;513;51.444;7.196;2022-12-20T05:55:48;9.40;99.90
1049;DHT22;513;51.444;7.196;2022-12-20T05:58:15;9.50;99.90
1049;DHT22;513;51.444;7.196;2022-12-20T06:00:43;9.50;99.90
1049;DHT22;513;51.444;7.196;2022-12-20T06:03:10;9.50;99.90
1049;DHT22;513;51.444;7.196;2022-12-20T06:05:41;9.60;99.90
1049;DHT22;513;51.444;7.196;2022-12-20T06:08:08;9.60;99.90
1049;DHT22;513;51.444;7.196;2022-12-20T06:10:35;9.60;99.90
1049;DHT22;513;51.444;7.196;2022-12-20T06:13:02;9.70;99.90
1049;DHT22;513;51.444;7.196;2022-12-20T06:15:29;9.70;99.90
1049;DHT22;513;51.444;7.196;2022-12-20T06:17:56;9.70;99.90
1049;DHT22;513;51.444;7.196;2022-12-20T06:20:23;9.70;99.90
1049;DHT22;513;51.444;7.196;2022-12-20T06:22:51;9.70;99.90
1049;DHT22;513;51.444;7.196;2022-12-20T06:25:18;9.70;99.90
1049;DHT22;513;51.444;7.196;2022-12-20T06:27:45;9.70;99.90
1049;DHT22;513;51.444;7.196;2022-12-20T06:30:12;9.80;99.90
1049;DHT22;513;51.444;7.196;2022-12-20T06:32:39;9.80;99.90
1049;DHT22;513;51.444;7.196;2022-12-20T06:35:06;9.80;99.90
1049;DHT22;513;51.444;7.196;2022-12-20T06:37:33;9.80;99.90
1049;DHT22;513;51.444;7.196;2022-12-20T06:40:02;9.80;99.90
1049;DHT22;513;51.444;7.196;2022-12-20T06:42:29;9.80;99.90
1049;DHT22;513;51.444;7.196;2022-12-20T06:44:55;9.90;99.90
1049;DHT22;513;51.444;7.196;2022-12-20T06:47:22;10.00;99.90
1049;DHT22;513;51.444;7.196;2022-12-20T06:49:49;10.00;99.90
1049;DHT22;513;51.444;7.196;2022-12-20T06:52:15;10.00;99.90
1049;DHT22;513;51.444;7.196;2022-12-20T06:54:42;10.10;99.90
1049;DHT22;513;51.444;7.196;2022-12-20T06:57:10;10.20;99.90
1049;DHT22;513;51.444;7.196;2022-12-20T06:59:37;10.20;99.90
1049;DHT22;513;51.444;7.196;2022-12-20T07:02:03;10.20;99.90
1049;DHT22;513;51.444;7.196;2022-12-20T07:04:30;10.20;99.90
1049;DHT22;513;51.444;7.196;2022-12-20T07:06:57;10.20;99.90
1049;DHT22;513;51.444;7.196;2022-12-20T07:09:24;10.20;99.90
1049;DHT22;513;51.444;7.196;2022-12-20T07:11:50;10.30;99.90
1049;DHT22;513;51.444;7.196;2022-12-20T07:14:18;10.30;99.90
1049;DHT22;513;51.444;7.196;2022-12-20T07:16:45;10.30;99.90
1049;DHT22;513;51.444;7.196;2022-12-20T07:19:13;10.30;99.90
1049;DHT22;513;51.444;7.196;2022-12-20T07:21:40;10.30;99.90
1049;DHT22;513;51.444;7.196;2022-12-20T07:24:07;10.30;99.90
1049;DHT22;513;51.444;7.196;2022-12-20T07:26:39;10.30;99.90
1049;DHT22;513;51.444;7.196;2022-12-20T07:29:07;10.30;99.90
1049;DHT22;513;51.444;7.196;2022-12-20T07:31:35;10.30;99.90
1049;DHT22;513;51.444;7.196;2022-12-20T07:34:05;10.30;99.90
1049;DHT22;513;51.444;7.196;2022-12-20T07:36:32;10.30;99.90
1049;DHT22;513;51.444;7.196;2022-12-20T07:38:59;10.30;99.90
1049;DHT22;513;51.444;7.196;2022-12-20T07:41:25;10.30;99.90
1049;DHT22;513;51.444;7.196;2022-12-20T07:43:52;10.30;99.90
1049;DHT22;513;51.444;7.196;2022-12-20T07:46:19;10.30;99.90
1049;DHT22;513;51.444;7.196;2022-12-20T07:48:47;10.30;99.90
1049;DHT22;513;51.444;7.196;2022-12-20T07:51:16;10.30;99.90
1049;DHT22;513;51.444;7.196;2022-12-20T07:53:46;10.30;99.90
1049;DHT22;513;51.444;7.196;2022-12-20T07:56:14;10.40;99.90
1049;DHT22;513;51.444;7.196;2022-12-20T07:58:42;10.50;99.90
1049;DHT22;513;51.444;7.196;2022-12-20T08:01:10;10.40;99.90
1049;DHT22;513;51.444;7.196;2022-12-20T08:03:40;10.40;99.90
1049;DHT22;513;51.444;7.196;2022-12-20T08:06:11;10.40;99.90
1049;DHT22;513;51.444;7.196;2022-12-20T08:08:40;10.50;99.90
1049;DHT22;513;51.444;7.196;2022-12-20T08:11:09;10.50;99.90
1049;DHT22;513;51.444;7.196;2022-12-20T08:13:36;10.50;99.90
1049;DHT22;513;51.444;7.196;2022-12-20T08:16:05;10.70;99.90
1049;DHT22;513;51.444;7.196;2022-12-20T08:18:31;10.70;99.90
1049;DHT22;513;51.444;7.196;2022-12-20T08:20:58;10.80;99.90
1049;DHT22;513;51.444;7.196;2022-12-20T08:23:26;10.80;99.90
1049;DHT22;513;51.444;7.196;2022-12-20T08:25:53;10.80;99.90
1049;DHT22;513;51.444;7.196;2022-12-20T08:28:20;10.90;99.90
1049;DHT22;513;51.444;7.196;2022-12-20T08:30:46;10.80;99.90
1049;DHT22;513;51.444;7.196;2022-12-20T08:33:13;10.90;99.90
1049;DHT22;513;51.444;7.196;2022-12-20T08:35:40;10.90;99.90
1049;DHT22;513;51.444;7.196;2022-12-20T08:38:06;11.00;97.00
1049;DHT22;513;51.444;7.196;2022-12-20T08:40:34;11.00;95.40
1049;DHT22;513;51.444;7.196;2022-12-20T08:43:01;10.90;98.50
1049;DHT22;513;51.444;7.196;2022-12-20T08:45:28;11.00;95.10
1049;DHT22;513;51.444;7.196;2022-12-20T08:47:54;10.90;99.90
1049;DHT22;513;51.444;7.196;2022-12-20T08:50:21;11.00;97.40
1049;DHT22;513;51.444;7.196;2022-12-20T08:52:48;10.90;99.70
1049;DHT22;513;51.444;7.196;2022-12-20T08:55:14;10.90;99.90
1049;DHT22;513;51.444;7.196;2022-12-20T08:57:42;10.90;99.90
1049;DHT22;513;51.444;7.196;2022-12-20T09:00:10;10.90;99.90
1049;DHT22;513;51.444;7.196;2022-12-20T09:02:37;11.00;92.20
1049;DHT22;513;51.444;7.196;2022-12-20T09:05:06;11.10;91.70
1049;DHT22;513;51.444;7.196;2022-12-20T09:07:32;11.10;91.50
1049;DHT22;513;51.444;7.196;2022-12-20T09:09:59;11.10;94.20
1049;DHT22;513;51.444;7.196;2022-12-20T09:12:26;11.10;90.60
1049;DHT22;513;51.444;7.196;2022-12-20T09:14:54;11.10;91.20
1049;DHT22;513;51.444;7.196;2022-12-20T09:17:21;11.10;88.20
1049;DHT22;513;51.444;7.196;2022-12-20T09:19:48;11.10;90.10
1049;DHT22;513;51.444;7.196;2022-12-20T09:22:15;11.10;87.50
1049;DHT22;513;51.444;7.196;2022-12-20T09:24:42;11.20;84.10
1049;DHT22;513;51.444;7.196;2022-12-20T09:27:08;11.20;80.90
1049;DHT22;513;51.444;7.196;2022-12-20T09:29:35;11.20;77.90
1049;DHT22;513;51.444;7.196;2022-12-20T09:32:03;11.10;82.50
1049;DHT22;513;51.444;7.196;2022-12-20T09:34:30;11.20;84.40
1049;DHT22;513;51.444;7.196;2022-12-20T09:36:56;11.10;80.80
1049;DHT22;513;51.444;7.196;2022-12-20T09:39:23;11.20;86.50
1049;DHT22;513;51.444;7.196;2022-12-20T09:41:50;11.10;85.90
1049;DHT22;513;51.444;7.196;2022-12-20T09:44:20;11.10;90.50
1049;DHT22;513;51.444;7.196;2022-12-20T09:46:52;11.10;90.10
1049;DHT22;513;51.444;7.196;2022-12-20T09:49:24;11.10;91.80
1049;DHT22;513;51.444;7.196;2022-12-20T09:52:22;11.10;94.60
1049;DHT22;513;51.444;7.196;2022-12-20T09:54:59;11.10;94.30
1049;DHT22;513;51.444;7.196;2022-12-20T09:57:33;11.10;94.50
1049;DHT22;513;51.444;7.196;2022-12-20T10:00:11;11.10;95.40
1049;DHT22;513;51.444;7.196;2022-12-20T10:02:39;11.10;97.60
1049;DHT22;513;51.444;7.196;2022-12-20T10:05:12;11.20;98.30
1049;DHT22;513;51.444;7.196;2022-12-20T10:07:47;11.20;99.90
1049;DHT22;513;51.444;7.196;2022-12-20T10:10:40;11.20;99.90
1049;DHT22;513;51.444;7.196;2022-12-20T10:13:18;11.20;99.90
1049;DHT22;513;51.444;7.196;2022-12-20T10:15:51;11.20;99.90
1049;DHT22;513;51.444;7.196;2022-12-20T10:18:28;11.30;94.90
1049;DHT22;513;51.444;7.196;2022-12-20T10:21:06;11.30;93.50
1049;DHT22;513;51.444;7.196;2022-12-20T10:23:39;11.40;94.40
1049;DHT22;513;51.444;7.196;2022-12-20T10:26:10;11.30;99.90
1049;DHT22;513;51.444;7.196;2022-12-20T10:28:37;11.20;99.90
1049;DHT22;513;51.444;7.196;2022-12-20T10:31:06;11.20;99.90
1049;DHT22;513;51.444;7.196;2022-12-20T10:33:34;11.20;99.90
1049;DHT22;513;51.444;7.196;2022-12-20T10:36:21;11.20;99.90
1049;DHT22;513;51.444;7.196;2022-12-20T10:38:51;11.20;99.90
1049;DHT22;513;51.444;7.196;2022-12-20T10:41:19;11.30;99.90
1049;DHT22;513;51.444;7.196;2022-12-20T10:43:49;11.20;99.90
1049;DHT22;513;51.444;7.196;2022-12-20T10:46:18;11.20;99.90
1049;DHT22;513;51.444;7.196;2022-12-20T10:48:46;11.20;99.90
1049;DHT22;513;51.444;7.196;2022-12-20T10:51:15;11.40;99.90
1049;DHT22;513;51.444;7.196;2022-12-20T10:53:55;11.40;99.90
1049;DHT22;513;51.444;7.196;2022-12-20T10:56:24;11.50;98.60
1049;DHT22;513;51.444;7.196;2022-12-20T10:58:57;11.50;99.90
1049;DHT22;513;51.444;7.196;2022-12-20T11:01:27;11.50;97.20
1049;DHT22;513;51.444;7.196;2022-12-20T11:03:57;11.50;98.80
1049;DHT22;513;51.444;7.196;2022-12-20T11:06:28;11.50;99.90
1049;DHT22;513;51.444;7.196;2022-12-20T11:12:04;11.70;96.10
1049;DHT22;513;51.444;7.196;2022-12-20T11:14:32;11.70;93.00
1049;DHT22;513;51.444;7.196;2022-12-20T11:17:04;11.70;91.40
1049;DHT22;513;51.444;7.196;2022-12-20T11:19:50;11.80;84.70
1049;DHT22;513;51.444;7.196;2022-12-20T11:22:30;11.70;82.80
1049;DHT22;513;51.444;7.196;2022-12-20T11:25:05;11.70;82.40
1049;DHT22;513;51.444;7.196;2022-12-20T11:27:42;11.70;93.20
1049;DHT22;513;51.444;7.196;2022-12-20T11:30:16;11.70;90.40
1049;DHT22;513;51.444;7.196;2022-12-20T11:33:06;11.80;85.90
1049;DHT22;513;51.444;7.196;2022-12-20T11:35:46;11.80;69.10
1049;DHT22;513;51.444;7.196;2022-12-20T11:38:25;11.80;59.60
1049;DHT22;513;51.444;7.196;2022-12-20T11:40:57;11.90;55.20
1049;DHT22;513;51.444;7.196;2022-12-20T11:43:42;11.90;52.60
1049;DHT22;513;51.444;7.196;2022-12-20T11:46:22;11.80;51.60
1049;DHT22;513;51.444;7.196;2022-12-20T11:49:09;11.80;62.50
1049;DHT22;513;51.444;7.196;2022-12-20T11:51:57;11.70;65.20
1049;DHT22;513;51.444;7.196;2022-12-20T11:54:29;11.80;69.20
1049;DHT22;513;51.444;7.196;2022-12-20T11:57:01;11.70;77.20
1049;DHT22;513;51.444;7.196;2022-12-20T11:59:36;11.70;72.00
1049;DHT22;513;51.444;7.196;2022-12-20T12:02:10;11.80;72.80
1049;DHT22;513;51.444;7.196;2022-12-20T12:04:41;11.70;88.90
1049;DHT22;513;51.444;7.196;2022-12-20T12:07:12;11.70;80.40
1049;DHT22;513;51.444;7.196;2022-12-20T12:09:55;11.70;81.60
1049;DHT22;513;51.444;7.196;2022-12-20T12:12:26;11.80;64.60
1049;DHT22;513;51.444;7.196;2022-12-20T12:14:59;11.70;54.60
1049;DHT22;513;51.444;7.196;2022-12-20T12:17:34;11.80;53.70
1049;DHT22;513;51.444;7.196;2022-12-20T12:20:17;11.80;53.20
1049;DHT22;513;51.444;7.196;2022-12-20T12:22:48;11.70;53.10
1049;DHT22;513;51.444;7.196;2022-12-20T12:25:17;11.70;56.20
1049;DHT22;513;51.444;7.196;2022-12-20T12:27:44;11.80;54.70
1049;DHT22;513;51.444;7.196;2022-12-20T12:30:14;11.70;49.90
1049;DHT22;513;51.444;7.196;2022-12-20T12:32:45;11.80;47.20
1049;DHT22;513;51.444;7.196;2022-12-20T12:35:45;11.70;44.10
1049;DHT22;513;51.444;7.196;2022-12-20T12:38:33;11.70;46.20
1049;DHT22;513;51.444;7.196;2022-12-20T12:41:28;11.80;42.40
1049;DHT22;513;51.444;7.196;2022-12-20T12:43:58;11.80;40.80
1049;DHT22;513;51.444;7.196;2022-12-20T12:46:32;11.80;35.40
1049;DHT22;513;51.444;7.196;2022-12-20T12:49:03;11.80;37.00
1049;DHT22;513;51.444;7.196;2022-12-20T12:51:34;11.90;38.50
1049;DHT22;513;51.444;7.196;2022-12-20T12:54:11;11.90;42.30
1049;DHT22;513;51.444;7.196;2022-12-20T12:56:40;11.90;50.10
1049;DHT22;513;51.444;7.196;2022-12-20T13:02:23;11.90;84.20
1049;DHT22;513;51.444;7.196;2022-12-20T13:04:55;11.90;92.30
1049;DHT22;513;51.444;7.196;2022-12-20T13:07:28;11.80;93.80
1049;DHT22;513;51.444;7.196;2022-12-20T13:13:12;11.60;99.90
1049;DHT22;513;51.444;7.196;2022-12-20T13:15:50;11.60;99.90
1049;DHT22;513;51.444;7.196;2022-12-20T13:18:26;11.40;99.90
1049;DHT22;513;51.444;7.196;2022-12-20T13:21:27;11.30;99.90
1049;DHT22;513;51.444;7.196;2022-12-20T13:33:18;10.90;99.90
1049;DHT22;513;51.444;7.196;2022-12-20T13:36:04;10.80;99.90
1049;DHT22;513;51.444;7.196;2022-12-20T13:38:57;10.70;99.90
1049;DHT22;513;51.444;7.196;2022-12-20T13:41:39;10.60;99.90
1049;DHT22;513;51.444;7.196;2022-12-20T13:44:35;10.60;99.90
1049;DHT22;513;51.444;7.196;2022-12-20T13:47:14;10.40;99.90
1049;DHT22;513;51.444;7.196;2022-12-20T13:49:46;10.40;99.90
1049;DHT22;513;51.444;7.196;2022-12-20T13:52:23;10.40;99.90
1049;DHT22;513;51.444;7.196;2022-12-20T13:54:56;10.40;99.90
1049;DHT22;513;51.444;7.196;2022-12-20T13:57:29;10.40;99.90
1049;DHT22;513;51.444;7.196;2022-12-20T13:59:59;10.40;99.90
1049;DHT22;513;51.444;7.196;2022-12-20T14:02:28;10.40;99.90
1049;DHT22;513;51.444;7.196;2022-12-20T14:04:58;10.40;99.90
1049;DHT22;513;51.444;7.196;2022-12-20T14:07:27;10.30;99.90
1049;DHT22;513;51.444;7.196;2022-12-20T14:09:58;10.30;99.90
1049;DHT22;513;51.444;7.196;2022-12-20T14:12:26;10.30;99.90
1049;DHT22;513;51.444;7.196;2022-12-20T14:14:53;10.30;99.90
1049;DHT22;513;51.444;7.196;2022-12-20T14:17:24;10.30;99.90
1049;DHT22;513;51.444;7.196;2022-12-20T14:20:13;10.30;99.90
1049;DHT22;513;51.444;7.196;2022-12-20T14:22:42;10.30;99.90
1049;DHT22;513;51.444;7.196;2022-12-20T14:25:16;10.30;99.90
1049;DHT22;513;51.444;7.196;2022-12-20T14:27:44;10.30;99.90
1049;DHT22;513;51.444;7.196;2022-12-20T14:30:29;10.30;99.90
1049;DHT22;513;51.444;7.196;2022-12-20T14:32:57;10.30;99.90
1049;DHT22;513;51.444;7.196;2022-12-20T14:35:24;10.30;99.90
1049;DHT22;513;51.444;7.196;2022-12-20T14:37:53;10.30;99.90
1049;DHT22;513;51.444;7.196;2022-12-20T14:40:22;10.30;99.90
1049;DHT22;513;51.444;7.196;2022-12-20T14:42:49;10.30;99.90
1049;DHT22;513;51.444;7.196;2022-12-20T14:45:19;10.30;99.90
1049;DHT22;513;51.444;7.196;2022-12-20T14:47:55;10.30;99.90
1049;DHT22;513;51.444;7.196;2022-12-20T14:50:27;10.30;99.90
1049;DHT22;513;51.444;7.196;2022-12-20T14:52:54;10.30;99.90
1049;DHT22;513;51.444;7.196;2022-12-20T14:55:25;10.30;99.90
1049;DHT22;513;51.444;7.196;2022-12-20T14:57:54;10.30;99.90
1049;DHT22;513;51.444;7.196;2022-12-20T15:00:23;10.20;99.90
1049;DHT22;513;51.444;7.196;2022-12-20T15:02:57;10.20;99.90
1049;DHT22;513;51.444;7.196;2022-12-20T15:05:51;10.30;99.90
1049;DHT22;513;51.444;7.196;2022-12-20T15:08:21;10.30;99.90
1049;DHT22;513;51.444;7.196;2022-12-20T15:10:53;10.20;99.90
1049;DHT22;513;51.444;7.196;2022-12-20T15:13:23;10.20;99.90
1049;DHT22;513;51.444;7.196;2022-12-20T15:15:50;10.20;99.90
1049;DHT22;513;51.444;7.196;2022-12-20T15:18:20;10.20;99.90
1049;DHT22;513;51.444;7.196;2022-12-20T15:20:49;10.20;99.90
1049;DHT22;513;51.444;7.196;2022-12-20T15:23:19;10.30;99.90
1049;DHT22;513;51.444;7.196;2022-12-20T15:25:47;10.20;99.90
1049;DHT22;513;51.444;7.196;2022-12-20T15:28:18;10.20;99.90
1049;DHT22;513;51.444;7.196;2022-12-20T15:30:45;10.20;99.90
1049;DHT22;513;51.444;7.196;2022-12-20T15:33:15;10.20;99.90
1049;DHT22;513;51.444;7.196;2022-12-20T15:35:42;10.20;99.90
1049;DHT22;513;51.444;7.196;2022-12-20T15:38:13;10.20;99.90
1049;DHT22;513;51.444;7.196;2022-12-20T15:40:41;10.10;99.90
1049;DHT22;513;51.444;7.196;2022-12-20T15:43:11;10.10;99.90
1049;DHT22;513;51.444;7.196;2022-12-20T15:45:40;10.10;99.90
1049;DHT22;513;51.444;7.196;2022-12-20T15:48:15;10.10;99.90
1049;DHT22;513;51.444;7.196;2022-12-20T15:50:46;10.10;99.90
1049;DHT22;513;51.444;7.196;2022-12-20T15:53:15;10.10;99.90
1049;DHT22;513;51.444;7.196;2022-12-20T15:55:48;10.10;99.90
1049;DHT22;513;51.444;7.196;2022-12-20T15:58:14;10.10;99.90
1049;DHT22;513;51.444;7.196;2022-12-20T16:00:43;10.10;99.90
1049;DHT22;513;51.444;7.196;2022-12-20T16:03:14;10.10;99.90
1049;DHT22;513;51.444;7.196;2022-12-20T16:05:42;10.10;99.90
1049;DHT22;513;51.444;7.196;2022-12-20T16:08:08;10.10;99.90
1049;DHT22;513;51.444;7.196;2022-12-20T16:10:35;10.10;99.90
1049;DHT22;513;51.444;7.196;2022-12-20T16:13:02;10.00;99.90
1049;DHT22;513;51.444;7.196;2022-12-20T16:15:29;10.10;99.90
1049;DHT22;513;51.444;7.196;2022-12-20T16:17:57;10.20;99.90
1049;DHT22;513;51.444;7.196;2022-12-20T16:20:24;10.10;99.90
1049;DHT22;513;51.444;7.196;2022-12-20T16:22:52;10.10;99.90
1049;DHT22;513;51.444;7.196;2022-12-20T16:25:24;10.10;99.90
1049;DHT22;513;51.444;7.196;2022-12-20T16:27:51;10.10;99.90
1049;DHT22;513;51.444;7.196;2022-12-20T16:30:18;10.10;99.90
1049;DHT22;513;51.444;7.196;2022-12-20T16:32:45;10.20;99.90
1049;DHT22;513;51.444;7.196;2022-12-20T16:35:25;10.10;99.90
1049;DHT22;513;51.444;7.196;2022-12-20T16:37:53;10.10;99.90
1049;DHT22;513;51.444;7.196;2022-12-20T16:40:20;10.10;99.90
1049;DHT22;513;51.444;7.196;2022-12-20T16:42:47;10.20;99.90
1049;DHT22;513;51.444;7.196;2022-12-20T16:45:17;10.10;99.90
1049;DHT22;513;51.444;7.196;2022-12-20T16:47:44;10.20;99.90
1049;DHT22;513;51.444;7.196;2022-12-20T16:50:11;10.20;99.90
1049;DHT22;513;51.444;7.196;2022-12-20T16:52:40;10.10;99.90
1049;DHT22;513;51.444;7.196;2022-12-20T16:55:11;10.10;99.90
1049;DHT22;513;51.444;7.196;2022-12-20T16:57:39;10.10;99.90
1049;DHT22;513;51.444;7.196;2022-12-20T17:00:09;10.20;99.90